sensor_id;sensor_type;location;lat;lon;timestamp;P1;durP1;ratioP1;P2;durP2;ratioP2
20122;SDS011;10222;50.848;4.336;2022-12-19T00:02:19;11.03;;;5.00;;
20122;SDS011;10222;50.848;4.336;2022-12-19T00:04:46;9.97;;;4.67;;
20122;SDS011;10222;50.848;4.336;2022-12-19T00:07:12;10.83;;;4.93;;
20122;SDS011;10222;50.848;4.336;2022-12-19T00:09:38;11.23;;;4.67;;
20122;SDS011;10222;50.848;4.336;2022-12-19T00:12:04;9.47;;;4.30;;
20122;SDS011;10222;50.848;4.336;2022-12-19T00:14:30;7.63;;;4.37;;
20122;SDS011;10222;50.848;4.336;2022-12-19T00:16:56;6.83;;;4.13;;
20122;SDS011;10222;50.848;4.336;2022-12-19T00:19:22;10.87;;;4.37;;
20122;SDS011;10222;50.848;4.336;2022-12-19T00:21:48;14.20;;;4.97;;
20122;SDS011;10222;50.848;4.336;2022-12-19T00:24:14;10.03;;;4.57;;
20122;SDS011;10222;50.848;4.336;2022-12-19T00:26:40;9.93;;;3.87;;
20122;SDS011;10222;50.848;4.336;2022-12-19T00:29:07;11.17;;;4.20;;
20122;SDS011;10222;50.848;4.336;2022-12-19T00:31:34;13.17;;;4.90;;
20122;SDS011;10222;50.848;4.336;2022-12-19T00:34:00;8.47;;;4.13;;
20122;SDS011;10222;50.848;4.336;2022-12-19T00:36:28;10.97;;;4.33;;
20122;SDS011;10222;50.848;4.336;2022-12-19T00:38:55;10.07;;;4.00;;
20122;SDS011;10222;50.848;4.336;2022-12-19T00:41:22;14.07;;;4.73;;
20122;SDS011;10222;50.848;4.336;2022-12-19T00:43:55;12.20;;;4.67;;
20122;SDS011;10222;50.848;4.336;2022-12-19T00:46:22;9.47;;;4.23;;
20122;SDS011;10222;50.848;4.336;2022-12-19T00:48:48;8.77;;;4.07;;
20122;SDS011;10222;50.848;4.336;2022-12-19T00:51:15;9.87;;;4.07;;
20122;SDS011;10222;50.848;4.336;2022-12-19T00:53:42;8.23;;;4.07;;
20122;SDS011;10222;50.848;4.336;2022-12-19T00:56:12;6.70;;;3.20;;
20122;SDS011;10222;50.848;4.336;2022-12-19T00:58:39;7.87;;;3.87;;
20122;SDS011;10222;50.848;4.336;2022-12-19T01:01:10;7.17;;;3.90;;
20122;SDS011;10222;50.848;4.336;2022-12-19T01:03:37;8.73;;;3.50;;
20122;SDS011;10222;50.848;4.336;2022-12-19T01:06:03;9.63;;;3.73;;
20122;SDS011;10222;50.848;4.336;2022-12-19T01:08:29;8.23;;;3.47;;
20122;SDS011;10222;50.848;4.336;2022-12-19T01:10:55;8.20;;;3.60;;
20122;SDS011;10222;50.848;4.336;2022-12-19T01:13:21;9.70;;;3.87;;
20122;SDS011;10222;50.848;4.336;2022-12-19T01:15:48;10.57;;;4.40;;
20122;SDS011;10222;50.848;4.336;2022-12-19T01:18:15;7.03;;;3.50;;
20122;SDS011;10222;50.848;4.336;2022-12-19T01:20:42;6.97;;;3.10;;
20122;SDS011;10222;50.848;4.336;2022-12-19T01:23:09;7.23;;;3.30;;
20122;SDS011;10222;50.848;4.336;2022-12-19T01:25:36;6.20;;;2.90;;
20122;SDS011;10222;50.848;4.336;2022-12-19T01:28:02;6.17;;;3.30;;
20122;SDS011;10222;50.848;4.336;2022-12-19T01:30:30;6.73;;;2.90;;
20122;SDS011;10222;50.848;4.336;2022-12-19T01:32:56;4.73;;;2.73;;
20122;SDS011;10222;50.848;4.336;2022-12-19T01:35:22;8.60;;;3.80;;
20122;SDS011;10222;50.848;4.336;2022-12-19T01:37:50;6.10;;;3.17;;
20122;SDS011;10222;50.848;4.336;2022-12-19T01:40:16;6.73;;;2.87;;
20122;SDS011;10222;50.848;4.336;2022-12-19T01:42:42;4.90;;;2.83;;
20122;SDS011;10222;50.848;4.336;2022-12-19T01:50:04;4.83;;;2.97;;
20122;SDS011;10222;50.848;4.336;2022-12-19T01:52:30;6.17;;;2.90;;
20122;SDS011;10222;50.848;4.336;2022-12-19T01:54:57;6.63;;;2.43;;
20122;SDS011;10222;50.848;4.336;2022-12-19T01:57:24;4.33;;;2.37;;
20122;SDS011;10222;50.848;4.336;2022-12-19T01:59:53;6.37;;;2.63;;
20122;SDS011;10222;50.848;4.336;2022-12-19T02:02:22;7.27;;;2.73;;
20122;SDS011;10222;50.848;4.336;2022-12-19T02:04:50;4.73;;;2.63;;
20122;SDS011;10222;50.848;4.336;2022-12-19T02:07:17;8.27;;;3.07;;
20122;SDS011;10222;50.848;4.336;2022-12-19T02:09:44;7.27;;;2.93;;
20122;SDS011;10222;50.848;4.336;2022-12-19T02:12:11;6.03;;;3.23;;
20122;SDS011;10222;50.848;4.336;2022-12-19T02:14:37;5.40;;;3.13;;
20122;SDS011;10222;50.848;4.336;2022-12-19T02:17:12;6.20;;;2.63;;
20122;SDS011;10222;50.848;4.336;2022-12-19T02:32:56;5.27;;;2.67;;
20122;SDS011;10222;50.848;4.336;2022-12-19T02:35:30;3.27;;;2.17;;
20122;SDS011;10222;50.848;4.336;2022-12-19T02:40:41;4.33;;;2.67;;
20122;SDS011;10222;50.848;4.336;2022-12-19T02:43:10;5.87;;;2.27;;
20122;SDS011;10222;50.848;4.336;2022-12-19T02:45:36;5.93;;;2.90;;
20122;SDS011;10222;50.848;4.336;2022-12-19T02:48:04;4.13;;;2.47;;
20122;SDS011;10222;50.848;4.336;2022-12-19T02:53:03;4.67;;;2.67;;
20122;SDS011;10222;50.848;4.336;2022-12-19T02:55:29;5.27;;;2.93;;
20122;SDS011;10222;50.848;4.336;2022-12-19T03:00:35;8.63;;;3.57;;
20122;SDS011;10222;50.848;4.336;2022-12-19T03:10:35;5.77;;;4.00;;
20122;SDS011;10222;50.848;4.336;2022-12-19T03:13:22;7.13;;;3.23;;
20122;SDS011;10222;50.848;4.336;2022-12-19T03:15:49;5.37;;;2.97;;
20122;SDS011;10222;50.848;4.336;2022-12-19T03:18:16;5.43;;;2.73;;
20122;SDS011;10222;50.848;4.336;2022-12-19T03:23:27;6.67;;;3.07;;
20122;SDS011;10222;50.848;4.336;2022-12-19T03:25:55;7.63;;;3.40;;
20122;SDS011;10222;50.848;4.336;2022-12-19T03:28:23;5.77;;;2.13;;
20122;SDS011;10222;50.848;4.336;2022-12-19T03:30:51;5.90;;;2.93;;
20122;SDS011;10222;50.848;4.336;2022-12-19T03:33:17;5.07;;;3.00;;
20122;SDS011;10222;50.848;4.336;2022-12-19T03:35:44;4.37;;;2.57;;
20122;SDS011;10222;50.848;4.336;2022-12-19T03:38:11;3.77;;;3.10;;
20122;SDS011;10222;50.848;4.336;2022-12-19T03:40:40;4.40;;;2.87;;
20122;SDS011;10222;50.848;4.336;2022-12-19T03:43:09;6.80;;;2.87;;
20122;SDS011;10222;50.848;4.336;2022-12-19T03:48:06;5.03;;;2.70;;
20122;SDS011;10222;50.848;4.336;2022-12-19T03:50:38;8.00;;;3.63;;
20122;SDS011;10222;50.848;4.336;2022-12-19T03:53:23;6.33;;;3.13;;
20122;SDS011;10222;50.848;4.336;2022-12-19T03:56:04;5.33;;;2.57;;
20122;SDS011;10222;50.848;4.336;2022-12-19T03:58:33;4.20;;;2.47;;
20122;SDS011;10222;50.848;4.336;2022-12-19T04:01:02;7.63;;;3.27;;
20122;SDS011;10222;50.848;4.336;2022-12-19T04:03:29;4.33;;;2.40;;
20122;SDS011;10222;50.848;4.336;2022-12-19T04:05:57;5.47;;;2.83;;
20122;SDS011;10222;50.848;4.336;2022-12-19T04:08:26;4.93;;;2.73;;
20122;SDS011;10222;50.848;4.336;2022-12-19T04:10:58;4.47;;;2.73;;
20122;SDS011;10222;50.848;4.336;2022-12-19T04:13:50;8.93;;;3.20;;
20122;SDS011;10222;50.848;4.336;2022-12-19T04:16:25;3.73;;;2.03;;
20122;SDS011;10222;50.848;4.336;2022-12-19T04:18:57;9.23;;;3.23;;
20122;SDS011;10222;50.848;4.336;2022-12-19T04:26:49;4.83;;;2.80;;
20122;SDS011;10222;50.848;4.336;2022-12-19T04:29:17;5.40;;;3.13;;
20122;SDS011;10222;50.848;4.336;2022-12-19T04:31:44;6.00;;;2.40;;
20122;SDS011;10222;50.848;4.336;2022-12-19T04:34:14;5.60;;;2.70;;
20122;SDS011;10222;50.848;4.336;2022-12-19T04:36:44;4.20;;;2.60;;
20122;SDS011;10222;50.848;4.336;2022-12-19T04:39:10;4.80;;;2.47;;
20122;SDS011;10222;50.848;4.336;2022-12-19T04:41:36;4.27;;;2.60;;
20122;SDS011;10222;50.848;4.336;2022-12-19T04:44:03;3.90;;;2.13;;
20122;SDS011;10222;50.848;4.336;2022-12-19T04:46:29;7.30;;;2.97;;
20122;SDS011;10222;50.848;4.336;2022-12-19T04:48:57;4.83;;;2.90;;
20122;SDS011;10222;50.848;4.336;2022-12-19T04:51:25;7.90;;;2.47;;
20122;SDS011;10222;50.848;4.336;2022-12-19T04:53:52;6.10;;;2.70;;
20122;SDS011;10222;50.848;4.336;2022-12-19T04:56:18;4.37;;;2.60;;
20122;SDS011;10222;50.848;4.336;2022-12-19T04:58:44;6.30;;;2.60;;
20122;SDS011;10222;50.848;4.336;2022-12-19T05:01:13;5.00;;;2.63;;
20122;SDS011;10222;50.848;4.336;2022-12-19T05:03:39;4.93;;;2.50;;
20122;SDS011;10222;50.848;4.336;2022-12-19T05:06:05;5.13;;;2.97;;
20122;SDS011;10222;50.848;4.336;2022-12-19T05:08:34;4.70;;;2.63;;
20122;SDS011;10222;50.848;4.336;2022-12-19T05:11:00;7.10;;;2.70;;
20122;SDS011;10222;50.848;4.336;2022-12-19T05:13:27;5.40;;;2.80;;
20122;SDS011;10222;50.848;4.336;2022-12-19T05:16:01;3.73;;;2.30;;
20122;SDS011;10222;50.848;4.336;2022-12-19T05:18:29;4.27;;;2.20;;
20122;SDS011;10222;50.848;4.336;2022-12-19T05:20:56;8.13;;;2.60;;
20122;SDS011;10222;50.848;4.336;2022-12-19T05:23:25;6.17;;;2.57;;
20122;SDS011;10222;50.848;4.336;2022-12-19T05:25:52;4.17;;;2.30;;
20122;SDS011;10222;50.848;4.336;2022-12-19T05:28:21;7.83;;;3.30;;
20122;SDS011;10222;50.848;4.336;2022-12-19T05:30:48;6.10;;;2.70;;
20122;SDS011;10222;50.848;4.336;2022-12-19T05:33:14;3.93;;;2.83;;
20122;SDS011;10222;50.848;4.336;2022-12-19T05:35:40;3.30;;;2.10;;
20122;SDS011;10222;50.848;4.336;2022-12-19T05:38:07;4.27;;;2.53;;
20122;SDS011;10222;50.848;4.336;2022-12-19T05:40:33;3.53;;;1.83;;
20122;SDS011;10222;50.848;4.336;2022-12-19T05:43:00;5.60;;;2.53;;
20122;SDS011;10222;50.848;4.336;2022-12-19T05:45:26;6.37;;;2.60;;
20122;SDS011;10222;50.848;4.336;2022-12-19T05:47:53;2.93;;;2.40;;
20122;SDS011;10222;50.848;4.336;2022-12-19T05:50:19;4.03;;;1.97;;
20122;SDS011;10222;50.848;4.336;2022-12-19T05:52:46;4.13;;;2.40;;
20122;SDS011;10222;50.848;4.336;2022-12-19T05:55:12;4.50;;;2.47;;
20122;SDS011;10222;50.848;4.336;2022-12-19T05:57:39;3.60;;;1.90;;
20122;SDS011;10222;50.848;4.336;2022-12-19T06:00:05;3.27;;;2.37;;
20122;SDS011;10222;50.848;4.336;2022-12-19T06:02:33;3.20;;;2.10;;
20122;SDS011;10222;50.848;4.336;2022-12-19T06:04:59;3.77;;;2.37;;
20122;SDS011;10222;50.848;4.336;2022-12-19T06:07:25;3.93;;;2.47;;
20122;SDS011;10222;50.848;4.336;2022-12-19T06:09:51;4.17;;;2.27;;
20122;SDS011;10222;50.848;4.336;2022-12-19T06:12:17;4.60;;;2.50;;
20122;SDS011;10222;50.848;4.336;2022-12-19T06:14:43;3.03;;;1.97;;
20122;SDS011;10222;50.848;4.336;2022-12-19T06:17:09;6.63;;;2.33;;
20122;SDS011;10222;50.848;4.336;2022-12-19T06:19:35;4.13;;;2.10;;
20122;SDS011;10222;50.848;4.336;2022-12-19T06:22:01;5.63;;;2.73;;
20122;SDS011;10222;50.848;4.336;2022-12-19T06:24:28;3.73;;;2.60;;
20122;SDS011;10222;50.848;4.336;2022-12-19T06:26:54;3.17;;;2.03;;
20122;SDS011;10222;50.848;4.336;2022-12-19T06:29:20;6.77;;;2.50;;
20122;SDS011;10222;50.848;4.336;2022-12-19T06:31:46;4.23;;;1.90;;
20122;SDS011;10222;50.848;4.336;2022-12-19T06:34:12;4.40;;;2.70;;
20122;SDS011;10222;50.848;4.336;2022-12-19T06:36:38;6.27;;;2.63;;
20122;SDS011;10222;50.848;4.336;2022-12-19T06:39:04;3.77;;;1.87;;
20122;SDS011;10222;50.848;4.336;2022-12-19T06:41:30;4.47;;;2.30;;
20122;SDS011;10222;50.848;4.336;2022-12-19T06:44:15;5.97;;;2.53;;
20122;SDS011;10222;50.848;4.336;2022-12-19T06:46:41;3.67;;;2.10;;
20122;SDS011;10222;50.848;4.336;2022-12-19T06:49:08;3.03;;;2.17;;
20122;SDS011;10222;50.848;4.336;2022-12-19T06:51:34;2.77;;;1.93;;
20122;SDS011;10222;50.848;4.336;2022-12-19T06:54:00;5.37;;;2.40;;
20122;SDS011;10222;50.848;4.336;2022-12-19T06:56:26;3.40;;;1.90;;
20122;SDS011;10222;50.848;4.336;2022-12-19T06:58:52;7.17;;;2.40;;
20122;SDS011;10222;50.848;4.336;2022-12-19T07:01:19;4.57;;;2.43;;
20122;SDS011;10222;50.848;4.336;2022-12-19T07:03:45;4.60;;;2.33;;
20122;SDS011;10222;50.848;4.336;2022-12-19T07:06:12;4.03;;;2.07;;
20122;SDS011;10222;50.848;4.336;2022-12-19T07:08:38;3.17;;;2.10;;
20122;SDS011;10222;50.848;4.336;2022-12-19T07:11:04;4.30;;;1.30;;
20122;SDS011;10222;50.848;4.336;2022-12-19T07:13:30;3.40;;;2.33;;
20122;SDS011;10222;50.848;4.336;2022-12-19T07:15:57;4.20;;;2.07;;
20122;SDS011;10222;50.848;4.336;2022-12-19T07:18:24;4.60;;;2.10;;
20122;SDS011;10222;50.848;4.336;2022-12-19T07:20:50;3.37;;;2.07;;
20122;SDS011;10222;50.848;4.336;2022-12-19T07:23:17;2.63;;;1.90;;
20122;SDS011;10222;50.848;4.336;2022-12-19T07:25:44;3.73;;;2.53;;
20122;SDS011;10222;50.848;4.336;2022-12-19T07:28:10;3.07;;;1.73;;
20122;SDS011;10222;50.848;4.336;2022-12-19T07:30:36;4.43;;;2.13;;
20122;SDS011;10222;50.848;4.336;2022-12-19T07:33:02;3.63;;;1.77;;
20122;SDS011;10222;50.848;4.336;2022-12-19T07:35:30;3.60;;;1.97;;
20122;SDS011;10222;50.848;4.336;2022-12-19T07:38:00;3.53;;;2.03;;
20122;SDS011;10222;50.848;4.336;2022-12-19T07:40:26;3.40;;;2.13;;
20122;SDS011;10222;50.848;4.336;2022-12-19T07:42:57;4.17;;;2.10;;
20122;SDS011;10222;50.848;4.336;2022-12-19T07:45:24;3.10;;;1.70;;
20122;SDS011;10222;50.848;4.336;2022-12-19T07:47:50;2.50;;;1.87;;
20122;SDS011;10222;50.848;4.336;2022-12-19T07:50:16;3.27;;;2.20;;
20122;SDS011;10222;50.848;4.336;2022-12-19T07:52:42;2.47;;;1.83;;
20122;SDS011;10222;50.848;4.336;2022-12-19T07:55:08;4.13;;;2.07;;
20122;SDS011;10222;50.848;4.336;2022-12-19T07:57:34;4.13;;;2.03;;
20122;SDS011;10222;50.848;4.336;2022-12-19T08:00:00;4.30;;;1.93;;
20122;SDS011;10222;50.848;4.336;2022-12-19T08:02:26;2.80;;;1.67;;
20122;SDS011;10222;50.848;4.336;2022-12-19T08:04:52;2.73;;;1.83;;
20122;SDS011;10222;50.848;4.336;2022-12-19T08:07:18;3.43;;;1.67;;
20122;SDS011;10222;50.848;4.336;2022-12-19T08:09:44;3.87;;;1.70;;
20122;SDS011;10222;50.848;4.336;2022-12-19T08:12:10;2.93;;;1.97;;
20122;SDS011;10222;50.848;4.336;2022-12-19T08:14:36;4.10;;;1.50;;
20122;SDS011;10222;50.848;4.336;2022-12-19T08:17:02;4.00;;;1.87;;
20122;SDS011;10222;50.848;4.336;2022-12-19T08:19:28;4.13;;;1.97;;
20122;SDS011;10222;50.848;4.336;2022-12-19T08:21:54;2.67;;;1.43;;
20122;SDS011;10222;50.848;4.336;2022-12-19T08:24:20;2.53;;;1.80;;
20122;SDS011;10222;50.848;4.336;2022-12-19T08:26:46;2.70;;;2.10;;
20122;SDS011;10222;50.848;4.336;2022-12-19T08:29:12;4.53;;;1.83;;
20122;SDS011;10222;50.848;4.336;2022-12-19T08:31:38;1.93;;;1.43;;
20122;SDS011;10222;50.848;4.336;2022-12-19T08:34:04;2.50;;;1.93;;
20122;SDS011;10222;50.848;4.336;2022-12-19T08:36:30;2.13;;;1.60;;
20122;SDS011;10222;50.848;4.336;2022-12-19T08:38:56;4.33;;;1.70;;
20122;SDS011;10222;50.848;4.336;2022-12-19T08:41:22;3.50;;;1.80;;
20122;SDS011;10222;50.848;4.336;2022-12-19T08:43:49;4.77;;;1.80;;
20122;SDS011;10222;50.848;4.336;2022-12-19T08:46:15;2.90;;;1.90;;
20122;SDS011;10222;50.848;4.336;2022-12-19T08:48:42;2.87;;;1.70;;
20122;SDS011;10222;50.848;4.336;2022-12-19T08:51:09;5.53;;;1.80;;
20122;SDS011;10222;50.848;4.336;2022-12-19T08:53:36;3.47;;;1.83;;
20122;SDS011;10222;50.848;4.336;2022-12-19T08:56:04;2.37;;;1.67;;
20122;SDS011;10222;50.848;4.336;2022-12-19T08:58:33;1.67;;;1.33;;
20122;SDS011;10222;50.848;4.336;2022-12-19T09:01:00;2.73;;;1.67;;
20122;SDS011;10222;50.848;4.336;2022-12-19T09:03:26;4.30;;;1.30;;
20122;SDS011;10222;50.848;4.336;2022-12-19T09:05:56;4.30;;;2.00;;
20122;SDS011;10222;50.848;4.336;2022-12-19T09:08:22;4.67;;;1.43;;
20122;SDS011;10222;50.848;4.336;2022-12-19T09:10:48;2.13;;;1.60;;
20122;SDS011;10222;50.848;4.336;2022-12-19T09:13:14;3.20;;;1.87;;
20122;SDS011;10222;50.848;4.336;2022-12-19T09:15:40;4.23;;;2.07;;
20122;SDS011;10222;50.848;4.336;2022-12-19T09:18:06;4.43;;;1.63;;
20122;SDS011;10222;50.848;4.336;2022-12-19T09:20:32;2.50;;;1.47;;
20122;SDS011;10222;50.848;4.336;2022-12-19T09:22:58;3.93;;;1.70;;
20122;SDS011;10222;50.848;4.336;2022-12-19T09:25:24;3.07;;;1.77;;
20122;SDS011;10222;50.848;4.336;2022-12-19T09:27:50;2.67;;;1.73;;
20122;SDS011;10222;50.848;4.336;2022-12-19T09:30:16;5.13;;;1.93;;
20122;SDS011;10222;50.848;4.336;2022-12-19T09:32:42;2.13;;;1.50;;
20122;SDS011;10222;50.848;4.336;2022-12-19T09:35:08;3.47;;;1.23;;
20122;SDS011;10222;50.848;4.336;2022-12-19T09:37:34;2.93;;;1.53;;
20122;SDS011;10222;50.848;4.336;2022-12-19T09:40:00;2.70;;;1.43;;
20122;SDS011;10222;50.848;4.336;2022-12-19T09:47:41;2.97;;;1.70;;
20122;SDS011;10222;50.848;4.336;2022-12-19T09:52:57;4.20;;;2.20;;
20122;SDS011;10222;50.848;4.336;2022-12-19T09:55:31;2.37;;;1.70;;
20122;SDS011;10222;50.848;4.336;2022-12-19T09:58:06;1.60;;;1.40;;
20122;SDS011;10222;50.848;4.336;2022-12-19T10:00:36;2.60;;;1.70;;
20122;SDS011;10222;50.848;4.336;2022-12-19T10:07:58;7.70;;;2.00;;
20122;SDS011;10222;50.848;4.336;2022-12-19T10:10:26;1.90;;;1.53;;
20122;SDS011;10222;50.848;4.336;2022-12-19T10:15:36;2.73;;;1.70;;
20122;SDS011;10222;50.848;4.336;2022-12-19T10:18:11;3.97;;;1.77;;
20122;SDS011;10222;50.848;4.336;2022-12-19T10:20:41;2.67;;;1.70;;
20122;SDS011;10222;50.848;4.336;2022-12-19T10:26:08;4.13;;;1.40;;
20122;SDS011;10222;50.848;4.336;2022-12-19T10:31:11;4.13;;;1.60;;
20122;SDS011;10222;50.848;4.336;2022-12-19T10:33:44;2.27;;;1.30;;
20122;SDS011;10222;50.848;4.336;2022-12-19T10:36:11;1.83;;;1.23;;
20122;SDS011;10222;50.848;4.336;2022-12-19T10:38:39;3.07;;;1.50;;
20122;SDS011;10222;50.848;4.336;2022-12-19T10:41:13;2.87;;;1.37;;
20122;SDS011;10222;50.848;4.336;2022-12-19T10:44:04;1.33;;;1.20;;
20122;SDS011;10222;50.848;4.336;2022-12-19T10:48:57;2.00;;;1.50;;
20122;SDS011;10222;50.848;4.336;2022-12-19T10:51:24;2.83;;;1.43;;
20122;SDS011;10222;50.848;4.336;2022-12-19T10:53:54;3.23;;;1.43;;
20122;SDS011;10222;50.848;4.336;2022-12-19T10:56:22;2.57;;;1.67;;
20122;SDS011;10222;50.848;4.336;2022-12-19T10:58:50;4.37;;;1.83;;
20122;SDS011;10222;50.848;4.336;2022-12-19T11:03:47;2.20;;;1.23;;
20122;SDS011;10222;50.848;4.336;2022-12-19T11:14:29;3.27;;;1.40;;
20122;SDS011;10222;50.848;4.336;2022-12-19T11:16:58;2.77;;;1.40;;
20122;SDS011;10222;50.848;4.336;2022-12-19T11:19:31;1.70;;;1.20;;
20122;SDS011;10222;50.848;4.336;2022-12-19T11:22:01;2.83;;;1.20;;
20122;SDS011;10222;50.848;4.336;2022-12-19T11:27:27;4.83;;;1.47;;
20122;SDS011;10222;50.848;4.336;2022-12-19T11:29:51;1.40;;;1.20;;
20122;SDS011;10222;50.848;4.336;2022-12-19T11:32:21;2.47;;;1.30;;
20122;SDS011;10222;50.848;4.336;2022-12-19T11:34:50;1.63;;;1.30;;
20122;SDS011;10222;50.848;4.336;2022-12-19T11:37:21;2.10;;;1.13;;
20122;SDS011;10222;50.848;4.336;2022-12-19T11:39:56;2.57;;;1.00;;
20122;SDS011;10222;50.848;4.336;2022-12-19T11:44:59;2.50;;;1.30;;
20122;SDS011;10222;50.848;4.336;2022-12-19T11:50:07;2.90;;;1.67;;
20122;SDS011;10222;50.848;4.336;2022-12-19T11:52:40;2.40;;;1.43;;
20122;SDS011;10222;50.848;4.336;2022-12-19T11:55:15;2.43;;;1.47;;
20122;SDS011;10222;50.848;4.336;2022-12-19T11:57:41;2.37;;;1.60;;
20122;SDS011;10222;50.848;4.336;2022-12-19T12:00:18;2.50;;;1.40;;
20122;SDS011;10222;50.848;4.336;2022-12-19T12:05:42;2.60;;;1.33;;
20122;SDS011;10222;50.848;4.336;2022-12-19T12:11:00;3.07;;;1.30;;
20122;SDS011;10222;50.848;4.336;2022-12-19T12:13:38;1.90;;;1.40;;
20122;SDS011;10222;50.848;4.336;2022-12-19T12:16:15;2.27;;;1.33;;
20122;SDS011;10222;50.848;4.336;2022-12-19T12:21:42;2.03;;;1.20;;
20122;SDS011;10222;50.848;4.336;2022-12-19T12:26:48;7.80;;;1.37;;
20122;SDS011;10222;50.848;4.336;2022-12-19T12:29:22;1.97;;;1.13;;
20122;SDS011;10222;50.848;4.336;2022-12-19T12:39:26;3.93;;;1.77;;
20122;SDS011;10222;50.848;4.336;2022-12-19T12:44:31;2.67;;;1.50;;
20122;SDS011;10222;50.848;4.336;2022-12-19T12:49:34;2.83;;;1.27;;
20122;SDS011;10222;50.848;4.336;2022-12-19T12:52:04;1.40;;;1.03;;
20122;SDS011;10222;50.848;4.336;2022-12-19T12:54:38;2.20;;;1.40;;
20122;SDS011;10222;50.848;4.336;2022-12-19T12:57:14;1.80;;;1.10;;
20122;SDS011;10222;50.848;4.336;2022-12-19T12:59:44;1.40;;;1.10;;
20122;SDS011;10222;50.848;4.336;2022-12-19T13:02:17;1.57;;;1.10;;
20122;SDS011;10222;50.848;4.336;2022-12-19T13:04:56;2.77;;;1.33;;
20122;SDS011;10222;50.848;4.336;2022-12-19T13:07:36;2.53;;;1.17;;
20122;SDS011;10222;50.848;4.336;2022-12-19T13:10:13;2.70;;;1.00;;
20122;SDS011;10222;50.848;4.336;2022-12-19T13:12:59;1.93;;;1.23;;
20122;SDS011;10222;50.848;4.336;2022-12-19T13:30:31;2.27;;;1.37;;
20122;SDS011;10222;50.848;4.336;2022-12-19T13:37:50;3.07;;;1.30;;
20122;SDS011;10222;50.848;4.336;2022-12-19T13:40:25;1.70;;;1.10;;
20122;SDS011;10222;50.848;4.336;2022-12-19T13:45:55;1.73;;;0.93;;
20122;SDS011;10222;50.848;4.336;2022-12-19T13:48:27;2.63;;;1.10;;
20122;SDS011;10222;50.848;4.336;2022-12-19T13:50:54;4.37;;;1.33;;
20122;SDS011;10222;50.848;4.336;2022-12-19T13:53:22;1.77;;;1.00;;
20122;SDS011;10222;50.848;4.336;2022-12-19T13:55:52;2.60;;;1.20;;
20122;SDS011;10222;50.848;4.336;2022-12-19T13:58:25;1.33;;;1.00;;
20122;SDS011;10222;50.848;4.336;2022-12-19T14:00:52;2.00;;;1.33;;
20122;SDS011;10222;50.848;4.336;2022-12-19T14:03:21;1.50;;;1.27;;
20122;SDS011;10222;50.848;4.336;2022-12-19T14:05:50;1.33;;;1.00;;
20122;SDS011;10222;50.848;4.336;2022-12-19T14:08:20;4.23;;;1.23;;
20122;SDS011;10222;50.848;4.336;2022-12-19T14:10:47;1.37;;;1.07;;
20122;SDS011;10222;50.848;4.336;2022-12-19T14:13:18;1.47;;;1.13;;
20122;SDS011;10222;50.848;4.336;2022-12-19T14:16:04;0.80;;;0.80;;
20122;SDS011;10222;50.848;4.336;2022-12-19T14:18:32;1.30;;;1.00;;
20122;SDS011;10222;50.848;4.336;2022-12-19T14:21:11;1.43;;;1.30;;
20122;SDS011;10222;50.848;4.336;2022-12-19T14:23:38;3.03;;;1.37;;
20122;SDS011;10222;50.848;4.336;2022-12-19T14:26:07;3.00;;;1.63;;
20122;SDS011;10222;50.848;4.336;2022-12-19T14:28:39;1.50;;;1.13;;
20122;SDS011;10222;50.848;4.336;2022-12-19T14:31:07;1.07;;;0.70;;
20122;SDS011;10222;50.848;4.336;2022-12-19T14:33:38;4.93;;;1.50;;
20122;SDS011;10222;50.848;4.336;2022-12-19T14:36:05;2.17;;;1.10;;
20122;SDS011;10222;50.848;4.336;2022-12-19T14:38:32;3.07;;;1.60;;
20122;SDS011;10222;50.848;4.336;2022-12-19T14:40:58;1.43;;;1.20;;
20122;SDS011;10222;50.848;4.336;2022-12-19T14:43:26;3.20;;;1.70;;
20122;SDS011;10222;50.848;4.336;2022-12-19T14:48:49;2.20;;;1.17;;
20122;SDS011;10222;50.848;4.336;2022-12-19T14:51:25;6.87;;;1.87;;
20122;SDS011;10222;50.848;4.336;2022-12-19T14:54:02;2.23;;;1.37;;
20122;SDS011;10222;50.848;4.336;2022-12-19T14:56:31;2.57;;;1.60;;
20122;SDS011;10222;50.848;4.336;2022-12-19T14:58:58;1.70;;;1.37;;
20122;SDS011;10222;50.848;4.336;2022-12-19T15:01:25;2.07;;;1.40;;
20122;SDS011;10222;50.848;4.336;2022-12-19T15:04:02;2.20;;;1.67;;
20122;SDS011;10222;50.848;4.336;2022-12-19T15:06:29;2.27;;;1.40;;
20122;SDS011;10222;50.848;4.336;2022-12-19T15:09:06;2.33;;;1.23;;
20122;SDS011;10222;50.848;4.336;2022-12-19T15:11:33;3.43;;;1.57;;
20122;SDS011;10222;50.848;4.336;2022-12-19T15:14:26;1.87;;;1.30;;
20122;SDS011;10222;50.848;4.336;2022-12-19T15:17:03;2.97;;;1.50;;
20122;SDS011;10222;50.848;4.336;2022-12-19T15:19:29;1.07;;;0.90;;
20122;SDS011;10222;50.848;4.336;2022-12-19T15:21:55;3.67;;;1.77;;
20122;SDS011;10222;50.848;4.336;2022-12-19T15:24:21;3.00;;;1.20;;
20122;SDS011;10222;50.848;4.336;2022-12-19T15:26:49;1.87;;;1.20;;
20122;SDS011;10222;50.848;4.336;2022-12-19T15:29:16;1.83;;;1.20;;
20122;SDS011;10222;50.848;4.336;2022-12-19T15:31:43;4.47;;;1.17;;
20122;SDS011;10222;50.848;4.336;2022-12-19T15:36:35;3.03;;;0.90;;
20122;SDS011;10222;50.848;4.336;2022-12-19T15:39:01;2.87;;;1.30;;
20122;SDS011;10222;50.848;4.336;2022-12-19T15:41:27;2.80;;;1.67;;
20122;SDS011;10222;50.848;4.336;2022-12-19T15:43:54;1.73;;;1.13;;
20122;SDS011;10222;50.848;4.336;2022-12-19T15:46:23;2.60;;;1.53;;
20122;SDS011;10222;50.848;4.336;2022-12-19T15:48:50;3.03;;;1.50;;
20122;SDS011;10222;50.848;4.336;2022-12-19T15:51:16;3.17;;;1.30;;
20122;SDS011;10222;50.848;4.336;2022-12-19T15:53:42;2.67;;;1.33;;
20122;SDS011;10222;50.848;4.336;2022-12-19T15:56:19;1.63;;;1.00;;
20122;SDS011;10222;50.848;4.336;2022-12-19T15:58:47;1.73;;;1.07;;
20122;SDS011;10222;50.848;4.336;2022-12-19T16:01:13;3.17;;;1.33;;
20122;SDS011;10222;50.848;4.336;2022-12-19T16:03:39;1.93;;;1.20;;
20122;SDS011;10222;50.848;4.336;2022-12-19T16:06:12;2.77;;;1.57;;
20122;SDS011;10222;50.848;4.336;2022-12-19T16:08:38;6.43;;;2.50;;
20122;SDS011;10222;50.848;4.336;2022-12-19T16:11:05;7.10;;;2.10;;
20122;SDS011;10222;50.848;4.336;2022-12-19T16:13:35;3.90;;;1.57;;
20122;SDS011;10222;50.848;4.336;2022-12-19T16:16:02;5.80;;;3.37;;
20122;SDS011;10222;50.848;4.336;2022-12-19T16:18:29;4.03;;;3.30;;
20122;SDS011;10222;50.848;4.336;2022-12-19T16:20:58;3.93;;;2.53;;
20122;SDS011;10222;50.848;4.336;2022-12-19T16:23:24;2.03;;;1.53;;
20122;SDS011;10222;50.848;4.336;2022-12-19T16:25:50;5.43;;;2.30;;
20122;SDS011;10222;50.848;4.336;2022-12-19T16:28:25;3.37;;;1.80;;
20122;SDS011;10222;50.848;4.336;2022-12-19T16:30:54;1.70;;;1.27;;
20122;SDS011;10222;50.848;4.336;2022-12-19T16:33:24;5.67;;;2.80;;
20122;SDS011;10222;50.848;4.336;2022-12-19T16:35:51;3.63;;;1.87;;
20122;SDS011;10222;50.848;4.336;2022-12-19T16:38:18;4.20;;;1.60;;
20122;SDS011;10222;50.848;4.336;2022-12-19T16:40:44;1.50;;;1.17;;
20122;SDS011;10222;50.848;4.336;2022-12-19T16:43:18;3.27;;;1.90;;
20122;SDS011;10222;50.848;4.336;2022-12-19T16:45:47;1.97;;;1.17;;
20122;SDS011;10222;50.848;4.336;2022-12-19T16:48:18;3.63;;;1.90;;
20122;SDS011;10222;50.848;4.336;2022-12-19T16:50:44;3.53;;;1.30;;
20122;SDS011;10222;50.848;4.336;2022-12-19T16:53:10;2.60;;;1.77;;
20122;SDS011;10222;50.848;4.336;2022-12-19T16:55:36;2.73;;;1.30;;
20122;SDS011;10222;50.848;4.336;2022-12-19T16:58:02;2.40;;;1.37;;
20122;SDS011;10222;50.848;4.336;2022-12-19T17:00:28;2.10;;;1.30;;
20122;SDS011;10222;50.848;4.336;2022-12-19T17:02:57;1.50;;;1.30;;
20122;SDS011;10222;50.848;4.336;2022-12-19T17:05:26;4.07;;;1.50;;
20122;SDS011;10222;50.848;4.336;2022-12-19T17:07:53;1.33;;;1.00;;
20122;SDS011;10222;50.848;4.336;2022-12-19T17:10:19;3.33;;;1.83;;
20122;SDS011;10222;50.848;4.336;2022-12-19T17:12:46;4.37;;;1.43;;
20122;SDS011;10222;50.848;4.336;2022-12-19T17:17:44;2.57;;;1.50;;